Time;durP1;ratioP1;P1;durP2;ratioP2;P2;SDS_P1;SDS_P2;PMS_P1;PMS_P2;Temp;Humidity;BMP_temperature;BMP_pressure;BME280_temperature;BME280_humidity;BME280_pressure;Samples;Min_cycle;Max_cycle;Signal;HPM_P1;HPM_P2
2022/03/20 00:01:40;;;;;;;21.95;12.55;;;;;;;3.24;58.24;101085.03;12205027;19;20027;-81
2022/03/20 00:05:42;;;;;;;29.90;12.13;;;;;;;3.17;58.29;101081.28;12207808;19;20362;-80
2022/03/20 00:09:45;;;;;;;23.63;12.17;;;;;;;3.14;58.72;101074.31;12193576;19;20027;-78
2022/03/20 00:13:46;;;;;;;22.98;12.20;;;;;;;3.09;58.19;101065.78;12199604;19;20034;-79
2022/03/20 00:17:49;;;;;;;22.35;11.60;;;;;;;3.11;57.65;101063.75;12201285;19;20440;-78
2022/03/20 00:21:51;;;;;;;20.83;12.30;;;;;;;3.17;57.37;101057.63;12186475;19;20094;-79
2022/03/20 00:25:54;;;;;;;23.48;11.88;;;;;;;3.22;57.20;101056.28;12206354;19;20088;-77
2022/03/20 00:29:56;;;;;;;22.52;12.02;;;;;;;3.19;57.47;101043.84;12195563;19;20846;-78
2022/03/20 00:33:58;;;;;;;18.75;10.65;;;;;;;3.11;57.40;101039.25;12203889;19;20377;-78
2022/03/20 00:37:59;;;;;;;21.73;11.57;;;;;;;3.07;57.29;101035.16;12205114;19;20006;-79
2022/03/20 00:42:02;;;;;;;22.88;11.73;;;;;;;3.05;57.21;101029.03;12192972;19;20010;-79
2022/03/20 00:46:04;;;;;;;21.97;11.00;;;;;;;3.04;57.07;101021.91;12204534;19;20011;-78
2022/03/20 00:50:07;;;;;;;23.37;12.13;;;;;;;3.08;56.85;101025.13;12201105;19;20010;-77
2022/03/20 00:54:10;;;;;;;23.25;11.32;;;;;;;3.07;56.43;101018.84;12180117;19;20273;-77
2022/03/20 00:58:12;;;;;;;26.95;11.90;;;;;;;3.09;56.15;101008.59;12210334;19;20029;-81
2022/03/20 01:02:15;;;;;;;23.92;12.48;;;;;;;3.16;55.71;101016.94;12212605;19;20585;-80
2022/03/20 01:06:18;;;;;;;21.48;12.90;;;;;;;3.18;55.35;101014.88;12187947;19;20007;-78
2022/03/20 01:10:20;;;;;;;23.80;12.13;;;;;;;3.20;55.41;101007.41;12210496;19;20014;-79
2022/03/20 01:14:22;;;;;;;22.30;11.32;;;;;;;3.24;55.19;101006.03;12201950;19;20018;-80
2022/03/20 01:18:26;;;;;;;24.80;12.60;;;;;;;3.28;55.26;101007.41;12181937;19;20015;-79
2022/03/20 01:22:28;;;;;;;21.93;12.07;;;;;;;3.36;54.64;101009.25;12209632;19;20016;-79
2022/03/20 01:26:30;;;;;;;25.88;12.40;;;;;;;3.43;54.46;100996.63;12212409;19;20014;-81
2022/03/20 01:30:32;;;;;;;21.75;12.35;;;;;;;3.48;54.23;100999.69;12185622;19;20042;-81
2022/03/20 01:34:34;;;;;;;26.75;12.63;;;;;;;3.53;53.83;100993.72;12194118;19;20062;-79
2022/03/20 01:38:35;;;;;;;24.33;11.83;;;;;;;3.50;53.98;100981.28;12220021;19;20433;-78
2022/03/20 01:42:39;;;;;;;25.13;12.43;;;;;;;3.53;54.12;100975.47;12182764;19;20101;-78
2022/03/20 01:46:41;;;;;;;23.25;12.43;;;;;;;3.50;53.96;100970.38;12209525;19;20010;-79
2022/03/20 01:50:43;;;;;;;17.83;9.67;;;;;;;3.48;53.63;100960.66;12212688;19;20007;-80
2022/03/20 01:54:47;;;;;;;23.15;11.52;;;;;;;3.49;53.42;100960.50;12191556;19;20126;-79
2022/03/20 01:58:48;;;;;;;21.50;12.20;;;;;;;3.49;53.40;100963.25;12197020;19;20014;-79
2022/03/20 02:02:51;;;;;;;23.08;12.50;;;;;;;3.50;53.25;100962.19;12188503;19;20093;-78
2022/03/20 02:06:54;;;;;;;23.13;11.73;;;;;;;3.51;53.25;100960.31;12202042;19;20010;-78
2022/03/20 02:10:56;;;;;;;23.10;11.48;;;;;;;3.49;53.13;100951.50;12204510;19;20011;-80
2022/03/20 02:15:01;;;;;;;24.13;11.97;;;;;;;3.48;52.86;100944.31;12180070;19;20090;-80
2022/03/20 02:19:04;;;;;;;26.17;11.93;;;;;;;3.58;52.64;100951.28;12197700;19;21018;-79
2022/03/20 02:23:06;;;;;;;21.45;12.20;;;;;;;3.60;52.96;100937.50;12205955;19;20074;-80
2022/03/20 02:27:23;;;;;;;22.42;12.27;;;;;;;3.61;52.60;100934.56;12183351;19;20018;-79
2022/03/20 02:31:25;;;;;;;22.90;12.18;;;;;;;3.61;52.71;100925.53;12210109;19;20451;-78
2022/03/20 02:35:31;;;;;;;23.90;14.00;;;;;;;3.57;52.72;100926.91;12195380;19;20030;-80
2022/03/20 02:39:34;;;;;;;23.23;12.02;;;;;;;3.57;52.94;100924.19;12179341;19;20018;-80
2022/03/20 02:43:38;;;;;;;23.58;12.95;;;;;;;3.56;53.30;100926.06;12191707;19;20025;-79
2022/03/20 02:47:43;;;;;;;22.80;12.18;;;;;;;3.55;53.15;100923.53;12203774;19;20010;-78
2022/03/20 02:51:45;;;;;;;24.75;13.15;;;;;;;3.53;52.99;100910.06;12171153;19;20543;-79
2022/03/20 02:55:46;;;;;;;24.55;12.45;;;;;;;3.51;52.98;100912.16;12196912;19;20018;-80
2022/03/20 02:59:48;;;;;;;27.35;13.05;;;;;;;3.50;52.97;100907.69;12204631;19;20126;-79
2022/03/20 03:03:53;;;;;;;25.65;14.00;;;;;;;3.49;53.00;100918.78;12181981;19;20102;-78
2022/03/20 03:12:22;;;;;;;22.42;12.32;;;;;;;3.46;52.91;100909.09;12175361;19;20022;-76
2022/03/20 03:16:26;;;;;;;22.52;11.68;;;;;;;3.41;53.18;100892.41;12187796;19;20022;-78
2022/03/20 03:20:30;;;;;;;25.02;14.10;;;;;;;3.42;53.17;100905.88;12198367;19;20034;-79
2022/03/20 03:24:33;;;;;;;25.58;12.02;;;;;;;3.44;52.92;100900.22;12172766;19;20010;-78
2022/03/20 03:28:36;;;;;;;25.20;13.15;;;;;;;3.50;53.08;100893.22;12194275;19;20014;-80
2022/03/20 03:32:40;;;;;;;25.77;12.93;;;;;;;3.57;52.81;100886.91;12204798;19;20028;-78
2022/03/20 03:36:41;;;;;;;24.48;12.98;;;;;;;3.64;52.71;100884.31;12204239;19;20015;-79
2022/03/20 03:40:45;;;;;;;26.08;13.70;;;;;;;3.71;52.65;100884.44;12230518;19;20023;-81
2022/03/20 03:44:49;;;;;;;26.02;12.95;;;;;;;3.76;52.36;100890.22;12208990;19;20010;-80
2022/03/20 03:48:51;;;;;;;29.52;14.05;;;;;;;3.72;52.74;100883.41;12200817;19;20010;-81
2022/03/20 03:52:52;;;;;;;26.63;14.00;;;;;;;3.72;52.83;100872.50;12226531;19;20746;-80
2022/03/20 03:56:55;;;;;;;27.70;14.05;;;;;;;3.69;52.76;100870.13;12199788;19;20037;-79
2022/03/20 04:00:56;;;;;;;26.30;13.80;;;;;;;3.71;52.74;100857.19;12214419;19;20014;-79
2022/03/20 04:04:58;;;;;;;26.13;12.68;;;;;;;3.71;52.90;100849.00;12217697;19;20014;-79
2022/03/20 04:09:00;;;;;;;28.35;14.45;;;;;;;3.74;52.73;100849.47;12195621;19;20487;-79
2022/03/20 04:13:02;;;;;;;27.35;14.93;;;;;;;3.73;53.54;100847.78;12221380;19;20011;-79
2022/03/20 04:17:05;;;;;;;27.70;14.77;;;;;;;3.74;52.92;100846.75;12209060;19;20088;-79
2022/03/20 04:21:10;;;;;;;28.70;13.25;;;;;;;3.82;52.83;100843.97;12191913;19;20484;-80
2022/03/20 04:25:13;;;;;;;27.55;13.10;;;;;;;3.84;52.75;100858.28;12218376;19;20018;-78
2022/03/20 04:29:15;;;;;;;28.83;15.70;;;;;;;3.89;52.51;100882.28;12217733;19;20013;-79
2022/03/20 04:33:18;;;;;;;27.30;14.05;;;;;;;3.85;52.16;100881.78;12197861;19;20074;-80
2022/03/20 04:37:21;;;;;;;23.92;14.48;;;;;;;3.88;52.53;100896.94;12199039;19;20074;-79
2022/03/20 04:41:25;;;;;;;26.38;13.50;;;;;;;3.93;52.39;100896.44;12210257;19;20045;-77
2022/03/20 04:45:28;;;;;;;;;;;;;;;3.94;52.91;100887.19;12188734;19;20035;-78
2022/03/20 04:58:29;;;;;;;26.08;13.50;;;;;;;3.84;53.54;100882.00;12207110;19;20812;-77
2022/03/20 05:02:33;;;;;;;29.45;15.35;;;;;;;3.86;53.89;100888.09;12212114;19;20018;-78
2022/03/20 05:06:37;;;;;;;28.40;15.23;;;;;;;3.89;53.69;100891.31;12194079;19;20015;-79
2022/03/20 05:14:59;;;;;;;26.45;13.55;;;;;;;3.99;53.27;100895.69;12188110;19;20006;-78
2022/03/20 05:19:00;;;;;;;32.42;15.82;;;;;;;4.10;53.20;100893.41;12201719;19;20032;-77
2022/03/20 05:23:02;;;;;;;27.75;15.27;;;;;;;4.22;53.18;100884.78;12214311;19;20058;-81
2022/03/20 05:27:05;;;;;;;26.60;11.90;;;;;;;4.30;53.11;100895.63;12179469;19;20018;-78
2022/03/20 05:31:07;;;;;;;31.73;14.10;;;;;;;4.32;53.06;100890.84;12213748;19;20027;-79
2022/03/20 05:35:10;;;;;;;30.35;16.20;;;;;;;4.39;52.82;100893.69;12205614;19;20021;-79
2022/03/20 05:39:13;;;;;;;27.55;15.70;;;;;;;4.47;52.76;100899.94;12184220;19;20014;-78
2022/03/20 05:43:18;;;;;;;27.92;15.23;;;;;;;4.51;52.49;100898.53;12214272;19;20461;-78
2022/03/20 05:47:24;;;;;;;31.83;15.60;;;;;;;4.51;52.81;100903.13;12221023;19;20023;-78
2022/03/20 05:51:30;;;;;;;27.45;15.27;;;;;;;4.60;52.83;100899.31;12180862;19;20013;-77
2022/03/20 05:59:54;;;;;;;31.40;15.52;;;;;;;4.71;52.81;100908.94;12182405;19;20720;-78
2022/03/20 06:03:56;;;;;;;;;;;;;;;4.80;52.87;100916.03;12205731;19;20073;-80
2022/03/20 06:07:59;;;;;;;29.02;14.15;;;;;;;4.86;52.62;100920.75;12204640;19;19995;-79
2022/03/20 06:12:00;;;;;;;34.25;17.15;;;;;;;4.90;52.95;100930.25;12177531;19;20094;-80
2022/03/20 06:16:06;;;;;;;32.92;15.50;;;;;;;5.01;52.89;100927.06;12203089;19;20102;-80
2022/03/20 06:20:09;;;;;;;33.50;16.48;;;;;;;5.09;53.14;100928.03;12201089;19;20011;-80
2022/03/20 06:24:11;;;;;;;32.13;15.85;;;;;;;5.13;53.46;100911.06;12179377;19;20026;-80
2022/03/20 06:28:12;;;;;;;29.90;16.00;;;;;;;5.16;54.17;100913.44;12206823;19;20369;-81
2022/03/20 06:32:15;;;;;;;30.48;15.15;;;;;;;5.20;54.34;100919.38;12205521;19;20014;-79
2022/03/20 06:36:16;;;;;;;21.33;11.43;;;;;;;5.29;54.14;100929.16;12173040;19;20027;-80
2022/03/20 06:40:22;;;;;;;32.17;16.10;;;;;;;5.39;54.15;100932.47;12194004;19;20373;-80
2022/03/20 06:44:26;;;;;;;29.20;16.75;;;;;;;5.45;54.09;100933.63;12192914;19;20006;-80
2022/03/20 06:48:28;;;;;;;33.88;16.67;;;;;;;5.57;54.41;100934.00;12177221;19;20014;-80
2022/03/20 06:52:31;;;;;;;;;;;;;;;5.68;54.65;100936.22;12198470;19;20109;-79
2022/03/20 06:56:33;;;;;;;30.55;15.90;;;;;;;5.83;54.08;100931.59;12194686;19;19918;-79
2022/03/20 07:00:39;;;;;;;29.90;17.30;;;;;;;5.94;53.73;100939.31;12175459;19;20011;-80
2022/03/20 07:04:41;;;;;;;;;;;;;;;6.11;53.08;100933.63;12191606;19;20007;-81
2022/03/20 07:08:43;;;;;;;32.05;16.38;;;;;;;6.27;53.21;100933.38;12192648;19;19966;-80
2022/03/20 07:12:45;;;;;;;33.33;16.88;;;;;;;6.28;52.77;100917.84;12181275;19;20011;-80
2022/03/20 07:16:46;;;;;;;32.65;17.92;;;;;;;6.30;52.61;100918.47;12191119;19;20435;-81
2022/03/20 07:20:54;;;;;;;33.55;18.83;;;;;;;6.32;52.18;100914.50;12178702;19;20015;-83
2022/03/20 07:29:29;;;;;;;27.95;16.55;;;;;;;6.52;51.73;100933.03;12202221;19;20094;-81
2022/03/20 07:29:30;;;;;;;35.47;17.92;;;;;;;6.66;51.13;100945.78;12207729;19;20088;-81
2022/03/20 07:33:33;;;;;;;30.08;16.88;;;;;;;6.93;50.67;100960.56;12175904;19;20031;-81
2022/03/20 07:37:34;;;;;;;31.45;16.23;;;;;;;7.11;50.30;100962.84;12198254;19;20010;-81
2022/03/20 07:41:38;;;;;;;36.55;17.95;;;;;;;7.26;50.23;100963.56;12198296;19;20453;-81
2022/03/20 07:45:42;;;;;;;30.95;17.50;;;;;;;7.56;50.10;100946.03;12175906;19;20017;-80
2022/03/20 07:49:44;;;;;;;21.87;13.53;;;;;;;7.63;49.72;100950.50;12196486;19;20043;-80
2022/03/20 07:53:46;;;;;;;30.73;17.63;;;;;;;7.79;49.67;100953.94;12193107;19;20021;-79
2022/03/20 07:57:49;;;;;;;31.15;17.20;;;;;;;7.94;49.31;100958.28;12172906;19;20412;-81
2022/03/20 08:01:51;;;;;;;33.78;18.20;;;;;;;8.09;49.29;100951.75;12183359;19;20021;-80
2022/03/20 08:05:53;;;;;;;35.53;18.03;;;;;;;8.05;49.49;100966.94;12180589;19;20356;-80
2022/03/20 08:09:54;;;;;;;36.97;19.45;;;;;;;8.16;49.71;100956.22;12190722;19;20323;-79
2022/03/20 08:13:57;;;;;;;32.22;18.02;;;;;;;8.56;49.42;100959.09;12189464;19;20082;-80
2022/03/20 08:17:59;;;;;;;31.77;18.40;;;;;;;8.93;48.53;100956.81;12176905;19;20512;-81
2022/03/20 08:22:05;;;;;;;35.40;19.27;;;;;;;9.24;47.29;100955.31;12211436;19;20010;-80
2022/03/20 08:26:08;;;;;;;32.90;18.40;;;;;;;9.51;46.34;100948.72;12206420;19;20082;-80
2022/03/20 08:30:12;;;;;;;35.72;17.85;;;;;;;9.85;47.10;100954.16;12181678;19;19999;-80
2022/03/20 08:34:16;;;;;;;31.48;18.05;;;;;;;9.98;46.29;100954.09;12201701;19;20097;-81
2022/03/20 08:38:22;;;;;;;34.85;18.73;;;;;;;10.26;46.31;100962.88;12197683;19;20444;-81
2022/03/20 08:42:24;;;;;;;34.00;18.02;;;;;;;10.45;45.42;100963.84;12189832;19;20017;-82
2022/03/20 08:46:29;;;;;;;35.38;19.52;;;;;;;10.71;44.94;100965.59;12209139;19;20042;-80
2022/03/20 08:50:34;;;;;;;33.08;18.30;;;;;;;11.05;44.80;100970.84;12206398;19;20049;-81
2022/03/20 08:54:36;;;;;;;34.25;18.88;;;;;;;11.46;44.42;100980.47;12191660;19;20010;-81
2022/03/20 08:58:38;;;;;;;37.40;18.85;;;;;;;11.88;44.50;100975.16;12210764;19;20405;-82
2022/03/20 09:02:45;;;;;;;31.58;17.55;;;;;;;12.25;43.30;100979.56;12214564;19;20019;-81
2022/03/20 09:06:49;;;;;;;34.58;18.95;;;;;;;12.61;43.06;100974.19;12189218;19;20416;-81
2022/03/20 09:10:51;;;;;;;31.33;19.42;;;;;;;12.58;42.06;100978.28;12199863;19;20666;-81
2022/03/20 09:14:53;;;;;;;33.65;19.33;;;;;;;12.93;42.17;100975.63;12183949;19;20014;-79
2022/03/20 09:19:03;;;;;;;33.78;19.25;;;;;;;13.25;41.63;100989.19;12182942;19;20079;-81
2022/03/20 09:23:07;;;;;;;35.70;20.35;;;;;;;13.36;40.46;100990.28;12209865;19;20025;-80
2022/03/20 09:27:09;;;;;;;34.20;19.38;;;;;;;13.46;40.64;100993.31;12186202;19;20094;-81
2022/03/20 09:31:14;;;;;;;36.70;20.45;;;;;;;13.17;41.15;100986.72;12210951;19;20070;-81
2022/03/20 09:35:23;;;;;;;32.92;19.55;;;;;;;13.11;41.52;100996.00;12201140;19;20030;-81
2022/03/20 09:39:31;;;;;;;31.95;18.67;;;;;;;13.70;40.83;100988.59;12187162;19;20034;-84
2022/03/20 09:43:36;;;;;;;31.43;18.63;;;;;;;13.98;40.13;100987.84;12204414;19;20560;-79
2022/03/20 09:47:45;;;;;;;29.52;17.45;;;;;;;14.06;40.30;100998.53;12221329;19;20010;-83
2022/03/20 09:51:46;;;;;;;34.03;18.67;;;;;;;13.97;41.25;100994.47;12190468;19;20040;-81
2022/03/20 09:55:50;;;;;;;;;;;;;;;13.85;41.26;100990.88;12211806;19;20066;-83
2022/03/20 09:59:52;;;;;;;30.98;18.02;;;;;;;13.85;41.85;100991.72;12185489;19;19938;-83
2022/03/20 10:04:11;;;;;;;32.42;18.83;;;;;;;13.97;42.26;100994.47;12213437;19;20010;-83
2022/03/20 10:08:17;;;;;;;31.73;18.05;;;;;;;14.17;42.37;100984.91;12211679;19;20118;-82
2022/03/20 10:12:36;;;;;;;27.63;17.17;;;;;;;14.25;42.17;100996.47;12187760;19;20367;-81
2022/03/20 10:16:44;;;;;;;28.92;17.83;;;;;;;14.14;42.83;101002.88;12207306;19;20018;-82
2022/03/20 10:20:58;;;;;;;28.83;16.80;;;;;;;14.03;43.17;101010.13;12188894;19;20449;-83
2022/03/20 10:25:00;;;;;;;29.67;17.23;;;;;;;14.05;43.47;101016.28;12206786;19;20007;-82
2022/03/20 10:29:02;;;;;;;30.30;17.10;;;;;;;14.19;43.97;100999.34;12206496;19;20014;-82
2022/03/20 10:33:13;;;;;;;29.52;17.25;;;;;;;14.48;44.23;101008.56;12188278;19;20116;-83
2022/03/20 10:37:18;;;;;;;30.50;17.77;;;;;;;14.53;44.07;101022.56;12211825;19;20506;-80
2022/03/20 10:41:26;;;;;;;27.77;17.42;;;;;;;14.54;43.57;101025.06;12211738;19;20024;-80
2022/03/20 10:45:30;;;;;;;28.60;17.25;;;;;;;14.14;44.26;101028.66;12191015;19;20002;-78
2022/03/20 10:49:33;;;;;;;27.92;16.98;;;;;;;14.15;44.39;101026.72;12213667;19;20006;-82
2022/03/20 10:53:51;;;;;;;31.10;18.15;;;;;;;14.29;44.04;101027.31;12217292;19;20014;-82
2022/03/20 10:57:55;;;;;;;33.72;17.52;;;;;;;15.02;43.67;101032.13;12186118;19;20027;-79
2022/03/20 11:01:59;;;;;;;29.30;17.73;;;;;;;15.61;42.11;101044.78;12204241;19;20011;-80
2022/03/20 11:06:09;;;;;;;30.08;17.95;;;;;;;15.64;41.86;101038.69;12191466;19;20014;-80
2022/03/20 11:10:14;;;;;;;29.85;17.10;;;;;;;15.39;42.72;101048.31;12208189;19;20085;-85
2022/03/20 11:14:22;;;;;;;31.55;17.67;;;;;;;15.38;42.86;101041.09;12210490;19;20013;-82
2022/03/20 11:53:05;;;;;;;22.35;13.23;;;;;;;17.58;39.66;101032.72;12218144;19;20627;-79
2022/03/20 11:57:28;;;;;;;29.38;14.45;;;;;;;17.97;37.87;101024.09;12216247;19;20030;-80
2022/03/20 12:02:02;;;;;;;24.45;13.18;;;;;;;18.40;37.65;101024.88;12215939;19;20094;-82
2022/03/20 12:06:39;;;;;;;19.00;12.48;;;;;;;18.63;37.05;101018.81;12197146;19;20006;-78
2022/03/20 12:11:01;;;;;;;19.88;12.70;;;;;;;18.67;36.43;101024.69;12213716;19;20070;-81
2022/03/20 12:15:09;;;;;;;19.92;12.80;;;;;;;19.26;36.06;101024.28;12193358;19;20460;-80
2022/03/20 12:19:12;;;;;;;20.30;13.85;;;;;;;19.76;35.50;101017.03;12215062;19;20010;-79
2022/03/20 12:23:31;;;;;;;24.30;13.35;;;;;;;20.25;34.04;101024.72;12219922;19;20033;-81
2022/03/20 12:27:36;;;;;;;23.60;13.80;;;;;;;20.24;34.53;101022.22;12186766;19;20014;-81
2022/03/20 12:32:14;;;;;;;21.00;13.50;;;;;;;20.24;33.72;101016.63;12217278;19;20014;-80
2022/03/20 12:36:28;;;;;;;20.13;13.63;;;;;;;20.36;33.13;101008.75;12189740;19;20017;-80
2022/03/20 12:40:36;;;;;;;21.35;13.63;;;;;;;20.72;32.68;101000.19;12207341;19;20063;-80
2022/03/20 12:44:52;;;;;;;17.25;11.65;;;;;;;20.56;32.52;101001.41;12191107;19;20010;-80
2022/03/20 12:48:56;;;;;;;17.60;11.23;;;;;;;20.74;32.85;100991.53;12206451;19;20007;-80
2022/03/20 12:53:03;;;;;;;17.38;10.90;;;;;;;20.58;32.66;100991.56;12212229;19;20512;-80
2022/03/20 12:57:06;;;;;;;16.10;11.05;;;;;;;19.28;33.57;100996.06;12185525;19;19998;-80
2022/03/20 13:01:09;;;;;;;21.52;10.35;;;;;;;18.80;34.79;100996.28;12218206;19;20019;-79
2022/03/20 13:05:12;;;;;;;15.52;10.07;;;;;;;19.50;34.17;100993.81;12211735;19;20408;-80
2022/03/20 13:09:15;;;;;;;17.83;9.57;;;;;;;20.38;32.91;100995.31;12196218;19;20087;-81
2022/03/20 13:13:26;;;;;;;17.85;9.13;;;;;;;20.92;32.36;100993.63;12209986;19;20032;-79
2022/03/20 13:17:34;;;;;;;19.83;9.80;;;;;;;20.69;32.39;100983.97;12212352;19;20496;-80
2022/03/20 13:21:48;;;;;;;16.60;9.35;;;;;;;19.43;33.22;100984.06;12192875;19;20014;-85
2022/03/20 13:25:55;;;;;;;;;;;;;;;18.74;34.26;100977.00;12210828;19;20073;-79
2022/03/20 13:29:58;;;;;;;12.90;8.80;;;;;;;18.41;35.56;100973.53;12186355;19;19915;-79
2022/03/20 13:34:00;;;;;;;15.02;9.27;;;;;;;18.43;35.25;100971.31;12203206;19;20512;-80
2022/03/20 13:38:04;;;;;;;18.92;8.23;;;;;;;18.11;35.91;100963.91;12213418;19;20017;-80
2022/03/20 13:42:16;;;;;;;17.75;7.93;;;;;;;17.82;36.32;100960.72;12175289;19;20014;-79
2022/03/20 13:46:29;;;;;;;18.15;7.90;;;;;;;17.75;36.17;100955.34;12212834;19;20027;-78
2022/03/20 13:50:33;;;;;;;13.38;7.90;;;;;;;18.12;36.19;100943.28;12204034;19;20032;-80
2022/03/20 13:54:39;;;;;;;16.00;8.00;;;;;;;18.34;36.29;100956.19;12194687;19;20405;-79
2022/03/20 13:59:05;;;;;;;15.45;8.27;;;;;;;19.01;34.90;100948.84;12214098;19;20394;-79
2022/03/20 14:03:08;;;;;;;11.43;6.85;;;;;;;18.84;34.87;100949.09;12184957;19;20013;-78
2022/03/20 14:07:21;;;;;;;14.13;7.63;;;;;;;18.38;34.62;100947.03;12213613;19;20089;-80
2022/03/20 14:11:32;;;;;;;17.30;7.05;;;;;;;18.03;35.54;100942.16;12223623;19;20024;-82
2022/03/20 14:15:40;;;;;;;13.35;7.30;;;;;;;17.83;36.05;100944.84;12184621;19;20078;-82
2022/03/20 14:19:46;;;;;;;12.25;7.07;;;;;;;17.54;36.25;100940.44;12211275;19;20033;-82
2022/03/20 14:23:56;;;;;;;15.13;7.57;;;;;;;17.39;36.20;100945.91;12204659;19;20469;-84
2022/03/20 14:28:11;;;;;;;16.42;6.07;;;;;;;17.40;36.33;100935.59;12179737;19;20011;-81
2022/03/20 14:41:19;;;;;;;16.30;7.53;;;;;;;17.22;36.29;100934.94;12211673;19;20014;-81
2022/03/20 14:45:22;;;;;;;13.38;7.35;;;;;;;17.43;36.16;100940.63;12177124;19;20483;-81
2022/03/20 14:49:27;;;;;;;14.75;7.32;;;;;;;17.61;36.30;100940.22;12203958;19;20097;-82
2022/03/20 14:53:32;;;;;;;15.88;6.82;;;;;;;17.97;35.00;100944.06;12202965;19;20031;-79
2022/03/20 14:57:34;;;;;;;17.80;8.23;;;;;;;18.22;34.40;100936.91;12189913;19;20361;-79
2022/03/20 15:01:42;;;;;;;;;;;;;;;18.27;34.55;100936.09;12213290;19;20010;-78
2022/03/20 15:05:44;;;;;;;13.82;6.85;;;;;;;18.53;34.04;100940.66;12210184;19;19978;-79
2022/03/20 15:14:09;;;;;;;10.75;6.15;;;;;;;18.45;34.54;100927.22;12208411;19;20345;-79
2022/03/20 15:18:12;;;;;;;13.48;6.25;;;;;;;18.28;33.94;100932.19;12185238;19;20023;-78
2022/03/20 15:22:24;;;;;;;13.00;6.70;;;;;;;17.97;34.62;100935.69;12206823;19;20007;-79
2022/03/20 15:26:28;;;;;;;12.25;6.70;;;;;;;17.88;34.79;100928.97;12209589;19;20014;-79
2022/03/20 15:30:36;;;;;;;12.32;6.75;;;;;;;17.79;34.43;100932.53;12188575;19;20122;-79
2022/03/20 15:34:38;;;;;;;12.55;6.97;;;;;;;17.76;34.67;100929.16;12212893;19;20662;-78
2022/03/20 15:38:41;;;;;;;14.43;6.70;;;;;;;17.82;34.64;100931.97;12208221;19;20082;-79
2022/03/20 15:42:44;;;;;;;16.60;7.10;;;;;;;17.83;34.20;100925.31;12182724;19;20011;-79
2022/03/20 15:46:49;;;;;;;11.52;6.47;;;;;;;17.70;34.60;100930.25;12197369;19;20007;-80
2022/03/20 15:50:51;;;;;;;9.90;6.85;;;;;;;17.51;34.54;100932.59;12193582;19;20174;-78
2022/03/20 15:54:54;;;;;;;12.75;6.40;;;;;;;17.46;34.72;100931.75;12213756;19;20014;-81
2022/03/20 15:59:21;;;;;;;11.85;6.50;;;;;;;17.34;34.41;100939.47;12209457;19;20707;-78
2022/03/20 16:03:25;;;;;;;14.07;7.35;;;;;;;17.30;34.83;100930.81;12190678;19;20756;-79
2022/03/20 16:07:30;;;;;;;17.13;7.07;;;;;;;17.52;34.62;100931.53;12207339;19;20033;-78
2022/03/20 16:11:33;;;;;;;15.47;7.27;;;;;;;17.44;34.44;100932.03;12202659;19;20030;-79
2022/03/20 16:15:37;;;;;;;11.70;6.40;;;;;;;17.34;34.58;100934.75;12188902;19;20027;-78
2022/03/20 16:19:39;;;;;;;18.88;7.60;;;;;;;17.09;35.32;100946.50;12208312;19;20007;-79
2022/03/20 16:32:22;;;;;;;12.10;7.28;;;;;;;16.84;35.90;100939.63;12207792;19;20070;-80
2022/03/20 16:36:23;;;;;;;13.05;6.55;;;;;;;16.72;36.30;100936.13;12182374;19;20010;-80
2022/03/20 16:40:25;;;;;;;10.45;6.47;;;;;;;16.69;36.17;100945.00;12198808;19;20014;-78
2022/03/20 16:44:30;;;;;;;15.82;7.18;;;;;;;16.62;36.70;100933.22;12212533;19;20006;-80
2022/03/20 16:48:33;;;;;;;14.93;7.25;;;;;;;16.63;36.70;100932.16;12190503;19;20380;-79
2022/03/20 16:52:36;;;;;;;11.52;6.22;;;;;;;16.87;36.24;100937.44;12203880;19;20031;-79
2022/03/20 16:56:40;;;;;;;11.88;6.50;;;;;;;17.06;36.27;100933.13;12209523;19;20026;-80
2022/03/20 17:00:42;;;;;;;13.50;6.43;;;;;;;16.83;36.62;100935.13;12187602;19;20010;-79
2022/03/20 17:04:44;;;;;;;12.45;6.55;;;;;;;16.45;37.16;100944.47;12198529;19;20014;-78
2022/03/20 17:08:46;;;;;;;11.37;6.43;;;;;;;16.03;38.13;100949.78;12204273;19;20381;-78
2022/03/20 17:12:50;;;;;;;9.90;5.85;;;;;;;15.69;38.54;100953.53;12182280;19;20018;-79
2022/03/20 17:16:52;;;;;;;15.77;6.93;;;;;;;15.40;38.87;100963.06;12208085;19;20094;-78
2022/03/20 17:20:54;;;;;;;11.43;6.40;;;;;;;15.04;39.76;100949.41;12188877;19;20016;-79
2022/03/20 17:24:58;;;;;;;14.80;5.97;;;;;;;14.67;40.23;100953.78;12207226;19;20011;-79
2022/03/20 17:28:59;;;;;;;13.65;5.75;;;;;;;14.30;40.80;100952.19;12206445;19;20015;-79
2022/03/20 17:33:06;;;;;;;11.38;5.70;;;;;;;13.97;41.25;100954.84;12183643;19;20014;-78
2022/03/20 17:37:08;;;;;;;17.15;6.18;;;;;;;13.64;41.79;100959.94;12205505;19;20026;-78
2022/03/20 17:41:15;;;;;;;10.18;6.53;;;;;;;13.32;42.63;100953.09;12208632;19;20018;-78
2022/03/20 17:45:32;;;;;;;10.05;6.57;;;;;;;13.02;42.90;100959.53;12180817;19;21233;-78
2022/03/20 17:49:40;;;;;;;12.52;6.30;;;;;;;12.75;43.30;100961.88;12204732;19;20563;-79
2022/03/20 17:53:45;;;;;;;15.30;5.88;;;;;;;12.54;43.77;100968.78;12209663;19;20077;-78
2022/03/20 17:57:48;;;;;;;12.13;6.57;;;;;;;12.34;44.21;100968.19;12200645;19;20011;-80
2022/03/20 18:07:41;;;;;;;12.35;6.35;;;;;;;12.13;44.59;100966.78;12231445;19;20007;-80
2022/03/20 18:10:51;;;;;;;12.57;6.82;;;;;;;11.78;45.27;100978.44;12195960;19;20011;-78
2022/03/20 18:14:54;;;;;;;14.82;6.97;;;;;;;11.68;45.63;100983.63;12187383;19;20046;-78
2022/03/20 18:18:56;;;;;;;13.27;6.20;;;;;;;11.61;46.03;100980.94;12204993;19;20109;-78
2022/03/20 18:22:58;;;;;;;15.90;6.00;;;;;;;11.61;46.29;100980.94;12197992;19;20024;-81
2022/03/20 18:27:01;;;;;;;10.75;5.60;;;;;;;11.66;46.36;100981.13;12181362;19;20019;-78
2022/03/20 18:31:03;;;;;;;13.90;6.95;;;;;;;11.63;46.58;100989.84;12206535;19;20002;-80
2022/03/20 18:35:07;;;;;;;14.27;6.70;;;;;;;11.60;46.70;100982.00;12197628;19;20003;-79
2022/03/20 18:39:09;;;;;;;12.38;5.85;;;;;;;11.54;46.71;100980.16;12175185;19;20012;-78
2022/03/20 18:43:13;;;;;;;12.30;6.22;;;;;;;11.47;46.99;100982.97;12205177;19;20006;-80
2022/03/20 18:47:16;;;;;;;19.17;7.95;;;;;;;11.40;47.19;100993.25;12194083;19;20354;-77
2022/03/20 18:51:18;;;;;;;17.75;8.32;;;;;;;11.25;47.47;100996.34;12182612;19;20013;-79
2022/03/20 18:55:26;;;;;;;16.92;8.00;;;;;;;11.14;48.03;100997.09;12197205;19;20678;-79
2022/03/20 18:59:34;;;;;;;23.42;9.30;;;;;;;11.07;48.01;100996.31;12203150;19;20010;-81
2022/03/20 19:03:36;;;;;;;16.83;8.17;;;;;;;10.97;48.39;100994.03;12183826;19;20017;-78
2022/03/20 19:07:44;;;;;;;19.08;9.63;;;;;;;10.89;48.38;101000.66;12201577;19;20626;-77
2022/03/20 19:11:52;;;;;;;21.40;10.55;;;;;;;10.82;48.47;101008.13;12201251;19;20002;-78
2022/03/20 19:15:53;;;;;;;24.50;10.13;;;;;;;10.74;48.80;101008.41;12176578;19;20378;-80
2022/03/20 19:19:55;;;;;;;17.98;10.30;;;;;;;10.63;48.70;101007.19;12207537;19;20006;-78
2022/03/20 19:23:58;;;;;;;21.02;11.45;;;;;;;10.60;48.66;101006.78;12186837;19;20018;-77
2022/03/20 19:28:02;;;;;;;18.25;11.20;;;;;;;10.62;48.20;101001.88;12206047;19;20007;-78
2022/03/20 19:32:05;;;;;;;24.92;11.50;;;;;;;10.57;48.82;101010.00;12211454;19;20020;-79
2022/03/20 19:40:27;;;;;;;21.88;10.95;;;;;;;10.49;48.33;101011.91;12197016;19;19911;-79
2022/03/20 19:44:35;;;;;;;21.92;11.75;;;;;;;10.43;48.36;101015.56;12203669;19;20037;-78
2022/03/20 19:48:38;;;;;;;19.90;12.18;;;;;;;10.43;48.19;101018.31;12180291;19;20014;-78
2022/03/20 19:52:40;;;;;;;20.45;11.73;;;;;;;10.42;48.03;101018.56;12202632;19;20078;-79
2022/03/20 19:56:43;;;;;;;21.45;12.15;;;;;;;10.41;47.61;101025.97;12210449;19;20014;-80
2022/03/20 20:00:45;;;;;;;;;;;;;;;10.30;48.46;101023.06;12187411;19;20077;-78